sensor_id;sensor_type;location;lat;lon;timestamp;P1;P2;P0
64631;PMS5003;58358;50.936;0.246;2023-08-24T00:00:19;3;3;
64631;PMS5003;58358;50.936;0.246;2023-08-24T00:02:44;10;9;
64631;PMS5003;58358;50.936;0.246;2023-08-24T00:05:09;6;6;
64631;PMS5003;58358;50.936;0.246;2023-08-24T00:07:35;7;7;
64631;PMS5003;58358;50.936;0.246;2023-08-24T00:10:01;8;7;
64631;PMS5003;58358;50.936;0.246;2023-08-24T00:12:26;10;8;
64631;PMS5003;58358;50.936;0.246;2023-08-24T00:14:52;9;8;
64631;PMS5003;58358;50.936;0.246;2023-08-24T00:17:17;8;8;
64631;PMS5003;58358;50.936;0.246;2023-08-24T00:19:43;9;9;
64631;PMS5003;58358;50.936;0.246;2023-08-24T00:22:09;10;9;
64631;PMS5003;58358;50.936;0.246;2023-08-24T00:24:34;5;5;
64631;PMS5003;58358;50.936;0.246;2023-08-24T00:27:00;7;7;
64631;PMS5003;58358;50.936;0.246;2023-08-24T00:29:26;7;7;
64631;PMS5003;58358;50.936;0.246;2023-08-24T00:31:51;7;7;
64631;PMS5003;58358;50.936;0.246;2023-08-24T00:34:17;8;8;
64631;PMS5003;58358;50.936;0.246;2023-08-24T00:36:43;10;9;
64631;PMS5003;58358;50.936;0.246;2023-08-24T00:39:08;9;9;
64631;PMS5003;58358;50.936;0.246;2023-08-24T00:41:34;8;7;
64631;PMS5003;58358;50.936;0.246;2023-08-24T00:43:59;7;6;
64631;PMS5003;58358;50.936;0.246;2023-08-24T00:46:25;7;7;
64631;PMS5003;58358;50.936;0.246;2023-08-24T00:48:50;7;7;
64631;PMS5003;58358;50.936;0.246;2023-08-24T00:51:16;8;8;
64631;PMS5003;58358;50.936;0.246;2023-08-24T00:53:42;9;8;
64631;PMS5003;58358;50.936;0.246;2023-08-24T00:56:07;6;6;
64631;PMS5003;58358;50.936;0.246;2023-08-24T00:58:33;7;7;
64631;PMS5003;58358;50.936;0.246;2023-08-24T01:00:58;6;6;
64631;PMS5003;58358;50.936;0.246;2023-08-24T01:03:24;10;9;
64631;PMS5003;58358;50.936;0.246;2023-08-24T01:05:50;7;6;
64631;PMS5003;58358;50.936;0.246;2023-08-24T01:08:15;9;8;
64631;PMS5003;58358;50.936;0.246;2023-08-24T01:10:44;8;8;
64631;PMS5003;58358;50.936;0.246;2023-08-24T01:13:07;7;7;
64631;PMS5003;58358;50.936;0.246;2023-08-24T01:15:33;6;6;
64631;PMS5003;58358;50.936;0.246;2023-08-24T01:17:59;7;6;
64631;PMS5003;58358;50.936;0.246;2023-08-24T01:20:24;6;6;
64631;PMS5003;58358;50.936;0.246;2023-08-24T01:22:54;7;6;
64631;PMS5003;58358;50.936;0.246;2023-08-24T01:25:16;7;7;
64631;PMS5003;58358;50.936;0.246;2023-08-24T01:27:41;6;6;
64631;PMS5003;58358;50.936;0.246;2023-08-24T01:30:06;9;7;
64631;PMS5003;58358;50.936;0.246;2023-08-24T01:32:32;10;9;
64631;PMS5003;58358;50.936;0.246;2023-08-24T01:34:58;8;8;
64631;PMS5003;58358;50.936;0.246;2023-08-24T01:37:23;6;6;
64631;PMS5003;58358;50.936;0.246;2023-08-24T01:39:50;7;7;
64631;PMS5003;58358;50.936;0.246;2023-08-24T01:42:15;4;4;
64631;PMS5003;58358;50.936;0.246;2023-08-24T01:44:40;5;5;
64631;PMS5003;58358;50.936;0.246;2023-08-24T01:47:05;5;5;
64631;PMS5003;58358;50.936;0.246;2023-08-24T01:49:31;5;5;
64631;PMS5003;58358;50.936;0.246;2023-08-24T01:51:56;7;7;
64631;PMS5003;58358;50.936;0.246;2023-08-24T01:54:22;7;7;
64631;PMS5003;58358;50.936;0.246;2023-08-24T01:56:48;7;7;
64631;PMS5003;58358;50.936;0.246;2023-08-24T01:59:13;8;7;
64631;PMS5003;58358;50.936;0.246;2023-08-24T02:01:39;7;7;
64631;PMS5003;58358;50.936;0.246;2023-08-24T02:04:04;9;9;
64631;PMS5003;58358;50.936;0.246;2023-08-24T02:06:30;8;7;
64631;PMS5003;58358;50.936;0.246;2023-08-24T02:08:56;6;6;
64631;PMS5003;58358;50.936;0.246;2023-08-24T02:11:22;8;8;
64631;PMS5003;58358;50.936;0.246;2023-08-24T02:13:47;7;7;
64631;PMS5003;58358;50.936;0.246;2023-08-24T02:16:13;8;8;
64631;PMS5003;58358;50.936;0.246;2023-08-24T02:18:38;7;7;
64631;PMS5003;58358;50.936;0.246;2023-08-24T02:21:07;8;8;
64631;PMS5003;58358;50.936;0.246;2023-08-24T02:23:30;6;6;
64631;PMS5003;58358;50.936;0.246;2023-08-24T02:25:56;8;8;
64631;PMS5003;58358;50.936;0.246;2023-08-24T02:28:21;7;6;
64631;PMS5003;58358;50.936;0.246;2023-08-24T02:30:47;5;5;
64631;PMS5003;58358;50.936;0.246;2023-08-24T02:33:12;8;8;
64631;PMS5003;58358;50.936;0.246;2023-08-24T02:35:38;8;8;
64631;PMS5003;58358;50.936;0.246;2023-08-24T02:38:04;6;6;
64631;PMS5003;58358;50.936;0.246;2023-08-24T02:40:29;8;7;
64631;PMS5003;58358;50.936;0.246;2023-08-24T02:42:55;4;4;
64631;PMS5003;58358;50.936;0.246;2023-08-24T02:45:20;8;5;
64631;PMS5003;58358;50.936;0.246;2023-08-24T02:47:46;7;7;
64631;PMS5003;58358;50.936;0.246;2023-08-24T02:50:11;7;7;
64631;PMS5003;58358;50.936;0.246;2023-08-24T02:52:37;10;10;
64631;PMS5003;58358;50.936;0.246;2023-08-24T02:55:03;7;6;
64631;PMS5003;58358;50.936;0.246;2023-08-24T02:57:28;9;8;
64631;PMS5003;58358;50.936;0.246;2023-08-24T02:59:54;5;5;
64631;PMS5003;58358;50.936;0.246;2023-08-24T03:02:20;9;9;
64631;PMS5003;58358;50.936;0.246;2023-08-24T03:04:45;8;8;
64631;PMS5003;58358;50.936;0.246;2023-08-24T03:07:11;8;8;
64631;PMS5003;58358;50.936;0.246;2023-08-24T03:09:37;6;6;
64631;PMS5003;58358;50.936;0.246;2023-08-24T03:12:02;10;8;
64631;PMS5003;58358;50.936;0.246;2023-08-24T03:14:28;9;9;
64631;PMS5003;58358;50.936;0.246;2023-08-24T03:16:53;8;7;
64631;PMS5003;58358;50.936;0.246;2023-08-24T03:19:19;5;5;
64631;PMS5003;58358;50.936;0.246;2023-08-24T03:21:45;8;8;
64631;PMS5003;58358;50.936;0.246;2023-08-24T03:24:11;10;7;
64631;PMS5003;58358;50.936;0.246;2023-08-24T03:26:36;6;6;
64631;PMS5003;58358;50.936;0.246;2023-08-24T03:29:02;8;7;
64631;PMS5003;58358;50.936;0.246;2023-08-24T03:31:27;7;6;
64631;PMS5003;58358;50.936;0.246;2023-08-24T03:33:53;6;6;
64631;PMS5003;58358;50.936;0.246;2023-08-24T03:36:19;6;6;
64631;PMS5003;58358;50.936;0.246;2023-08-24T03:38:44;7;7;
64631;PMS5003;58358;50.936;0.246;2023-08-24T03:41:10;10;8;
64631;PMS5003;58358;50.936;0.246;2023-08-24T03:43:36;10;10;
64631;PMS5003;58358;50.936;0.246;2023-08-24T03:46:01;10;10;
64631;PMS5003;58358;50.936;0.246;2023-08-24T03:48:27;5;5;
64631;PMS5003;58358;50.936;0.246;2023-08-24T03:50:53;8;8;
64631;PMS5003;58358;50.936;0.246;2023-08-24T03:53:18;9;7;
64631;PMS5003;58358;50.936;0.246;2023-08-24T03:55:47;9;9;
64631;PMS5003;58358;50.936;0.246;2023-08-24T03:58:09;9;9;
64631;PMS5003;58358;50.936;0.246;2023-08-24T04:00:35;9;8;
64631;PMS5003;58358;50.936;0.246;2023-08-24T04:03:00;8;8;
64631;PMS5003;58358;50.936;0.246;2023-08-24T04:05:26;8;8;
64631;PMS5003;58358;50.936;0.246;2023-08-24T04:07:51;10;10;
64631;PMS5003;58358;50.936;0.246;2023-08-24T04:10:17;9;9;
64631;PMS5003;58358;50.936;0.246;2023-08-24T04:12:42;12;11;
64631;PMS5003;58358;50.936;0.246;2023-08-24T04:15:09;9;8;
64631;PMS5003;58358;50.936;0.246;2023-08-24T04:17:33;9;9;
64631;PMS5003;58358;50.936;0.246;2023-08-24T04:19:59;9;9;
64631;PMS5003;58358;50.936;0.246;2023-08-24T04:22:24;9;9;
64631;PMS5003;58358;50.936;0.246;2023-08-24T04:24:50;9;9;
64631;PMS5003;58358;50.936;0.246;2023-08-24T04:27:15;9;9;
64631;PMS5003;58358;50.936;0.246;2023-08-24T04:29:41;7;7;
64631;PMS5003;58358;50.936;0.246;2023-08-24T04:32:07;8;8;
64631;PMS5003;58358;50.936;0.246;2023-08-24T04:34:33;7;7;
64631;PMS5003;58358;50.936;0.246;2023-08-24T04:36:58;8;8;
64631;PMS5003;58358;50.936;0.246;2023-08-24T04:39:24;9;9;
64631;PMS5003;58358;50.936;0.246;2023-08-24T04:41:49;6;6;
64631;PMS5003;58358;50.936;0.246;2023-08-24T04:44:15;7;7;
64631;PMS5003;58358;50.936;0.246;2023-08-24T04:46:40;9;9;
64631;PMS5003;58358;50.936;0.246;2023-08-24T04:49:06;10;9;
64631;PMS5003;58358;50.936;0.246;2023-08-24T04:51:32;7;7;
64631;PMS5003;58358;50.936;0.246;2023-08-24T04:53:57;8;8;
64631;PMS5003;58358;50.936;0.246;2023-08-24T04:56:23;7;7;
64631;PMS5003;58358;50.936;0.246;2023-08-24T04:58:52;8;8;
64631;PMS5003;58358;50.936;0.246;2023-08-24T05:01:14;8;8;
64631;PMS5003;58358;50.936;0.246;2023-08-24T05:03:40;8;8;
64631;PMS5003;58358;50.936;0.246;2023-08-24T05:06:05;7;7;
64631;PMS5003;58358;50.936;0.246;2023-08-24T05:08:31;7;7;
64631;PMS5003;58358;50.936;0.246;2023-08-24T05:10:56;9;8;
64631;PMS5003;58358;50.936;0.246;2023-08-24T05:13:22;12;11;
64631;PMS5003;58358;50.936;0.246;2023-08-24T05:15:48;8;8;
64631;PMS5003;58358;50.936;0.246;2023-08-24T05:18:13;10;10;
64631;PMS5003;58358;50.936;0.246;2023-08-24T05:20:38;9;9;
64631;PMS5003;58358;50.936;0.246;2023-08-24T05:23:04;7;7;
64631;PMS5003;58358;50.936;0.246;2023-08-24T05:25:30;10;9;
64631;PMS5003;58358;50.936;0.246;2023-08-24T05:27:55;6;6;
64631;PMS5003;58358;50.936;0.246;2023-08-24T05:30:20;8;8;
64631;PMS5003;58358;50.936;0.246;2023-08-24T05:32:46;9;9;
64631;PMS5003;58358;50.936;0.246;2023-08-24T05:35:12;8;8;
64631;PMS5003;58358;50.936;0.246;2023-08-24T05:37:37;10;9;
64631;PMS5003;58358;50.936;0.246;2023-08-24T05:40:03;9;8;
64631;PMS5003;58358;50.936;0.246;2023-08-24T05:42:29;9;9;
64631;PMS5003;58358;50.936;0.246;2023-08-24T05:44:54;12;11;
64631;PMS5003;58358;50.936;0.246;2023-08-24T05:47:19;10;10;
64631;PMS5003;58358;50.936;0.246;2023-08-24T05:49:45;8;8;
64631;PMS5003;58358;50.936;0.246;2023-08-24T05:52:11;8;8;
64631;PMS5003;58358;50.936;0.246;2023-08-24T05:54:36;10;10;
64631;PMS5003;58358;50.936;0.246;2023-08-24T05:57:02;10;10;
64631;PMS5003;58358;50.936;0.246;2023-08-24T05:59:28;9;7;
64631;PMS5003;58358;50.936;0.246;2023-08-24T06:01:53;10;10;
64631;PMS5003;58358;50.936;0.246;2023-08-24T06:04:19;7;7;
64631;PMS5003;58358;50.936;0.246;2023-08-24T06:06:44;11;9;
64631;PMS5003;58358;50.936;0.246;2023-08-24T06:09:10;9;9;
64631;PMS5003;58358;50.936;0.246;2023-08-24T06:11:36;9;9;
64631;PMS5003;58358;50.936;0.246;2023-08-24T06:14:01;9;9;
64631;PMS5003;58358;50.936;0.246;2023-08-24T06:16:27;9;9;
64631;PMS5003;58358;50.936;0.246;2023-08-24T06:18:52;9;9;
64631;PMS5003;58358;50.936;0.246;2023-08-24T06:21:18;8;8;
64631;PMS5003;58358;50.936;0.246;2023-08-24T06:23:44;11;9;
64631;PMS5003;58358;50.936;0.246;2023-08-24T06:26:10;11;11;
64631;PMS5003;58358;50.936;0.246;2023-08-24T06:28:35;12;11;
64631;PMS5003;58358;50.936;0.246;2023-08-24T06:31:00;9;9;
64631;PMS5003;58358;50.936;0.246;2023-08-24T06:33:26;10;9;
64631;PMS5003;58358;50.936;0.246;2023-08-24T06:35:51;10;10;
64631;PMS5003;58358;50.936;0.246;2023-08-24T06:38:17;10;10;
64631;PMS5003;58358;50.936;0.246;2023-08-24T06:40:42;11;11;
64631;PMS5003;58358;50.936;0.246;2023-08-24T06:43:07;17;14;
64631;PMS5003;58358;50.936;0.246;2023-08-24T06:45:33;17;17;
64631;PMS5003;58358;50.936;0.246;2023-08-24T06:47:58;15;14;
64631;PMS5003;58358;50.936;0.246;2023-08-24T06:50:24;15;15;
64631;PMS5003;58358;50.936;0.246;2023-08-24T06:52:49;14;14;
64631;PMS5003;58358;50.936;0.246;2023-08-24T06:55:14;14;13;
64631;PMS5003;58358;50.936;0.246;2023-08-24T06:57:40;15;13;
64631;PMS5003;58358;50.936;0.246;2023-08-24T07:00:06;13;13;
64631;PMS5003;58358;50.936;0.246;2023-08-24T07:02:31;16;13;
64631;PMS5003;58358;50.936;0.246;2023-08-24T07:04:56;14;14;
64631;PMS5003;58358;50.936;0.246;2023-08-24T07:07:22;13;13;
64631;PMS5003;58358;50.936;0.246;2023-08-24T07:09:47;15;13;
64631;PMS5003;58358;50.936;0.246;2023-08-24T07:12:13;15;13;
64631;PMS5003;58358;50.936;0.246;2023-08-24T07:14:39;12;12;
64631;PMS5003;58358;50.936;0.246;2023-08-24T07:17:05;15;14;
64631;PMS5003;58358;50.936;0.246;2023-08-24T07:19:30;15;14;
64631;PMS5003;58358;50.936;0.246;2023-08-24T07:21:55;16;16;
64631;PMS5003;58358;50.936;0.246;2023-08-24T07:24:21;15;15;
64631;PMS5003;58358;50.936;0.246;2023-08-24T07:26:46;18;14;
64631;PMS5003;58358;50.936;0.246;2023-08-24T07:29:12;13;12;
64631;PMS5003;58358;50.936;0.246;2023-08-24T07:31:38;18;16;
64631;PMS5003;58358;50.936;0.246;2023-08-24T07:34:03;17;14;
64631;PMS5003;58358;50.936;0.246;2023-08-24T07:36:29;15;13;
64631;PMS5003;58358;50.936;0.246;2023-08-24T07:38:54;14;14;
64631;PMS5003;58358;50.936;0.246;2023-08-24T07:41:20;16;16;
64631;PMS5003;58358;50.936;0.246;2023-08-24T07:43:46;15;14;
64631;PMS5003;58358;50.936;0.246;2023-08-24T07:46:11;17;17;
64631;PMS5003;58358;50.936;0.246;2023-08-24T07:48:37;15;15;
64631;PMS5003;58358;50.936;0.246;2023-08-24T07:51:02;18;17;
64631;PMS5003;58358;50.936;0.246;2023-08-24T07:53:27;21;21;
64631;PMS5003;58358;50.936;0.246;2023-08-24T07:55:53;24;24;
64631;PMS5003;58358;50.936;0.246;2023-08-24T07:58:17;25;25;
64631;PMS5003;58358;50.936;0.246;2023-08-24T08:00:43;22;22;
64631;PMS5003;58358;50.936;0.246;2023-08-24T08:03:09;24;23;
64631;PMS5003;58358;50.936;0.246;2023-08-24T08:05:34;21;20;
64631;PMS5003;58358;50.936;0.246;2023-08-24T08:08:00;19;19;
64631;PMS5003;58358;50.936;0.246;2023-08-24T08:10:25;22;20;
64631;PMS5003;58358;50.936;0.246;2023-08-24T08:12:50;21;21;
64631;PMS5003;58358;50.936;0.246;2023-08-24T08:15:16;18;18;
64631;PMS5003;58358;50.936;0.246;2023-08-24T08:17:41;21;20;
64631;PMS5003;58358;50.936;0.246;2023-08-24T08:20:07;26;25;
64631;PMS5003;58358;50.936;0.246;2023-08-24T08:22:32;22;22;
64631;PMS5003;58358;50.936;0.246;2023-08-24T08:24:58;21;19;
64631;PMS5003;58358;50.936;0.246;2023-08-24T08:27:23;21;21;
64631;PMS5003;58358;50.936;0.246;2023-08-24T08:29:49;22;21;
64631;PMS5003;58358;50.936;0.246;2023-08-24T08:32:14;26;22;
64631;PMS5003;58358;50.936;0.246;2023-08-24T08:34:40;20;18;
64631;PMS5003;58358;50.936;0.246;2023-08-24T08:37:05;20;20;
64631;PMS5003;58358;50.936;0.246;2023-08-24T08:39:31;23;23;
64631;PMS5003;58358;50.936;0.246;2023-08-24T08:41:57;19;18;
64631;PMS5003;58358;50.936;0.246;2023-08-24T08:44:22;24;24;
64631;PMS5003;58358;50.936;0.246;2023-08-24T08:46:48;34;33;
64631;PMS5003;58358;50.936;0.246;2023-08-24T08:49:13;24;20;
64631;PMS5003;58358;50.936;0.246;2023-08-24T08:51:38;21;20;
64631;PMS5003;58358;50.936;0.246;2023-08-24T08:54:04;20;19;
64631;PMS5003;58358;50.936;0.246;2023-08-24T08:56:30;19;19;
64631;PMS5003;58358;50.936;0.246;2023-08-24T08:58:56;23;23;
64631;PMS5003;58358;50.936;0.246;2023-08-24T09:01:21;19;19;
64631;PMS5003;58358;50.936;0.246;2023-08-24T09:03:47;24;23;
64631;PMS5003;58358;50.936;0.246;2023-08-24T09:06:12;24;23;
64631;PMS5003;58358;50.936;0.246;2023-08-24T09:08:38;22;21;
64631;PMS5003;58358;50.936;0.246;2023-08-24T09:11:03;25;24;
64631;PMS5003;58358;50.936;0.246;2023-08-24T09:13:28;20;20;
64631;PMS5003;58358;50.936;0.246;2023-08-24T09:15:53;24;24;
64631;PMS5003;58358;50.936;0.246;2023-08-24T09:18:19;26;26;
64631;PMS5003;58358;50.936;0.246;2023-08-24T09:20:46;24;22;
64631;PMS5003;58358;50.936;0.246;2023-08-24T09:25:37;26;25;
64631;PMS5003;58358;50.936;0.246;2023-08-24T09:28:02;25;24;
64631;PMS5003;58358;50.936;0.246;2023-08-24T09:30:28;25;24;
64631;PMS5003;58358;50.936;0.246;2023-08-24T09:32:52;25;25;
64631;PMS5003;58358;50.936;0.246;2023-08-24T09:35:18;27;26;
64631;PMS5003;58358;50.936;0.246;2023-08-24T09:37:43;23;23;
64631;PMS5003;58358;50.936;0.246;2023-08-24T09:40:09;28;27;
64631;PMS5003;58358;50.936;0.246;2023-08-24T09:42:37;18;18;
64631;PMS5003;58358;50.936;0.246;2023-08-24T09:45:02;28;27;
64631;PMS5003;58358;50.936;0.246;2023-08-24T09:47:25;20;20;
64631;PMS5003;58358;50.936;0.246;2023-08-24T09:49:51;34;33;
64631;PMS5003;58358;50.936;0.246;2023-08-24T09:52:17;25;22;
64631;PMS5003;58358;50.936;0.246;2023-08-24T09:54:43;28;26;
64631;PMS5003;58358;50.936;0.246;2023-08-24T09:57:08;25;25;
64631;PMS5003;58358;50.936;0.246;2023-08-24T09:59:34;23;23;
64631;PMS5003;58358;50.936;0.246;2023-08-24T10:02:00;24;24;
64631;PMS5003;58358;50.936;0.246;2023-08-24T10:04:25;23;20;
64631;PMS5003;58358;50.936;0.246;2023-08-24T10:06:51;24;24;
64631;PMS5003;58358;50.936;0.246;2023-08-24T10:09:18;24;23;
64631;PMS5003;58358;50.936;0.246;2023-08-24T10:11:42;18;18;
64631;PMS5003;58358;50.936;0.246;2023-08-24T10:14:10;24;23;
64631;PMS5003;58358;50.936;0.246;2023-08-24T10:16:32;22;22;
64631;PMS5003;58358;50.936;0.246;2023-08-24T10:18:58;21;21;
64631;PMS5003;58358;50.936;0.246;2023-08-24T10:21:23;21;19;
64631;PMS5003;58358;50.936;0.246;2023-08-24T10:23:48;27;23;
64631;PMS5003;58358;50.936;0.246;2023-08-24T10:26:14;26;26;
64631;PMS5003;58358;50.936;0.246;2023-08-24T10:28:39;27;27;
64631;PMS5003;58358;50.936;0.246;2023-08-24T10:31:04;22;20;
64631;PMS5003;58358;50.936;0.246;2023-08-24T10:33:30;23;22;
64631;PMS5003;58358;50.936;0.246;2023-08-24T10:35:55;31;27;
64631;PMS5003;58358;50.936;0.246;2023-08-24T10:38:23;24;23;
64631;PMS5003;58358;50.936;0.246;2023-08-24T10:40:47;22;20;
64631;PMS5003;58358;50.936;0.246;2023-08-24T10:43:12;22;21;
64631;PMS5003;58358;50.936;0.246;2023-08-24T10:48:03;28;25;
64631;PMS5003;58358;50.936;0.246;2023-08-24T10:50:29;21;20;
64631;PMS5003;58358;50.936;0.246;2023-08-24T10:52:54;24;22;
64631;PMS5003;58358;50.936;0.246;2023-08-24T10:55:23;22;20;
64631;PMS5003;58358;50.936;0.246;2023-08-24T10:57:45;21;21;
64631;PMS5003;58358;50.936;0.246;2023-08-24T11:00:11;25;25;
64631;PMS5003;58358;50.936;0.246;2023-08-24T11:02:41;22;22;
64631;PMS5003;58358;50.936;0.246;2023-08-24T11:05:04;26;23;
64631;PMS5003;58358;50.936;0.246;2023-08-24T11:07:28;24;24;
64631;PMS5003;58358;50.936;0.246;2023-08-24T11:09:54;26;22;
64631;PMS5003;58358;50.936;0.246;2023-08-24T11:12:20;22;22;
64631;PMS5003;58358;50.936;0.246;2023-08-24T11:14:49;15;15;
64631;PMS5003;58358;50.936;0.246;2023-08-24T11:19:36;44;42;
64631;PMS5003;58358;50.936;0.246;2023-08-24T11:22:01;22;22;
64631;PMS5003;58358;50.936;0.246;2023-08-24T11:24:27;25;25;
64631;PMS5003;58358;50.936;0.246;2023-08-24T11:26:52;24;21;
64631;PMS5003;58358;50.936;0.246;2023-08-24T11:29:17;21;21;
64631;PMS5003;58358;50.936;0.246;2023-08-24T11:31:43;23;23;
64631;PMS5003;58358;50.936;0.246;2023-08-24T11:34:09;25;24;
64631;PMS5003;58358;50.936;0.246;2023-08-24T11:36:42;20;20;
64631;PMS5003;58358;50.936;0.246;2023-08-24T11:39:00;27;24;
64631;PMS5003;58358;50.936;0.246;2023-08-24T11:41:26;28;25;
64631;PMS5003;58358;50.936;0.246;2023-08-24T11:46:17;24;24;
64631;PMS5003;58358;50.936;0.246;2023-08-24T11:48:42;26;26;
64631;PMS5003;58358;50.936;0.246;2023-08-24T11:51:08;26;25;
64631;PMS5003;58358;50.936;0.246;2023-08-24T11:53:36;25;23;
64631;PMS5003;58358;50.936;0.246;2023-08-24T11:55:59;23;23;
64631;PMS5003;58358;50.936;0.246;2023-08-24T11:58:25;25;23;
64631;PMS5003;58358;50.936;0.246;2023-08-24T12:00:51;24;22;
64631;PMS5003;58358;50.936;0.246;2023-08-24T12:03:17;25;25;
64631;PMS5003;58358;50.936;0.246;2023-08-24T12:05:42;25;25;
64631;PMS5003;58358;50.936;0.246;2023-08-24T12:08:08;24;22;
64631;PMS5003;58358;50.936;0.246;2023-08-24T12:10:33;21;18;
64631;PMS5003;58358;50.936;0.246;2023-08-24T12:13:03;25;25;
64631;PMS5003;58358;50.936;0.246;2023-08-24T12:15:27;20;20;
64631;PMS5003;58358;50.936;0.246;2023-08-24T12:17:50;29;28;
64631;PMS5003;58358;50.936;0.246;2023-08-24T12:20:17;27;24;
64631;PMS5003;58358;50.936;0.246;2023-08-24T12:22:41;24;24;
64631;PMS5003;58358;50.936;0.246;2023-08-24T12:25:06;26;26;
64631;PMS5003;58358;50.936;0.246;2023-08-24T12:27:32;24;24;
64631;PMS5003;58358;50.936;0.246;2023-08-24T12:30:00;22;22;
64631;PMS5003;58358;50.936;0.246;2023-08-24T12:32:23;24;24;
64631;PMS5003;58358;50.936;0.246;2023-08-24T12:34:48;26;26;
64631;PMS5003;58358;50.936;0.246;2023-08-24T12:37:13;25;25;
64631;PMS5003;58358;50.936;0.246;2023-08-24T12:39:39;26;24;
64631;PMS5003;58358;50.936;0.246;2023-08-24T12:42:05;20;20;
64631;PMS5003;58358;50.936;0.246;2023-08-24T12:44:30;22;22;
64631;PMS5003;58358;50.936;0.246;2023-08-24T12:46:56;29;29;
64631;PMS5003;58358;50.936;0.246;2023-08-24T12:49:21;28;28;
64631;PMS5003;58358;50.936;0.246;2023-08-24T12:51:47;29;28;
64631;PMS5003;58358;50.936;0.246;2023-08-24T12:54:12;27;27;
64631;PMS5003;58358;50.936;0.246;2023-08-24T12:56:38;28;27;
64631;PMS5003;58358;50.936;0.246;2023-08-24T12:59:03;20;19;
64631;PMS5003;58358;50.936;0.246;2023-08-24T13:01:28;28;27;
64631;PMS5003;58358;50.936;0.246;2023-08-24T13:03:54;32;28;
64631;PMS5003;58358;50.936;0.246;2023-08-24T13:06:19;27;26;
64631;PMS5003;58358;50.936;0.246;2023-08-24T13:08:45;30;28;
64631;PMS5003;58358;50.936;0.246;2023-08-24T13:11:10;28;25;
64631;PMS5003;58358;50.936;0.246;2023-08-24T13:13:36;29;26;
64631;PMS5003;58358;50.936;0.246;2023-08-24T13:16:02;30;28;
64631;PMS5003;58358;50.936;0.246;2023-08-24T13:18:27;29;27;
64631;PMS5003;58358;50.936;0.246;2023-08-24T13:20:53;26;25;
64631;PMS5003;58358;50.936;0.246;2023-08-24T13:23:19;24;23;
64631;PMS5003;58358;50.936;0.246;2023-08-24T13:25:44;28;26;
64631;PMS5003;58358;50.936;0.246;2023-08-24T13:28:10;26;25;
64631;PMS5003;58358;50.936;0.246;2023-08-24T13:30:36;25;25;
64631;PMS5003;58358;50.936;0.246;2023-08-24T13:33:01;25;25;
64631;PMS5003;58358;50.936;0.246;2023-08-24T13:35:27;27;25;
64631;PMS5003;58358;50.936;0.246;2023-08-24T13:37:53;25;25;
64631;PMS5003;58358;50.936;0.246;2023-08-24T13:40:18;29;29;
64631;PMS5003;58358;50.936;0.246;2023-08-24T13:42:44;25;25;
64631;PMS5003;58358;50.936;0.246;2023-08-24T13:45:10;28;27;
64631;PMS5003;58358;50.936;0.246;2023-08-24T13:47:35;22;22;
64631;PMS5003;58358;50.936;0.246;2023-08-24T13:50:00;26;26;
64631;PMS5003;58358;50.936;0.246;2023-08-24T13:52:26;27;26;
64631;PMS5003;58358;50.936;0.246;2023-08-24T13:54:51;24;21;
64631;PMS5003;58358;50.936;0.246;2023-08-24T13:57:17;25;25;
64631;PMS5003;58358;50.936;0.246;2023-08-24T13:59:42;25;25;
64631;PMS5003;58358;50.936;0.246;2023-08-24T14:02:07;21;21;
64631;PMS5003;58358;50.936;0.246;2023-08-24T14:04:33;21;21;
64631;PMS5003;58358;50.936;0.246;2023-08-24T14:06:59;24;22;
64631;PMS5003;58358;50.936;0.246;2023-08-24T14:09:25;20;20;
64631;PMS5003;58358;50.936;0.246;2023-08-24T14:11:50;19;19;
64631;PMS5003;58358;50.936;0.246;2023-08-24T14:14:15;19;18;
64631;PMS5003;58358;50.936;0.246;2023-08-24T14:16:41;25;23;
64631;PMS5003;58358;50.936;0.246;2023-08-24T14:19:07;23;21;
64631;PMS5003;58358;50.936;0.246;2023-08-24T14:21:33;20;19;
64631;PMS5003;58358;50.936;0.246;2023-08-24T14:23:58;18;17;
64631;PMS5003;58358;50.936;0.246;2023-08-24T14:26:24;19;18;
64631;PMS5003;58358;50.936;0.246;2023-08-24T14:28:50;19;17;
64631;PMS5003;58358;50.936;0.246;2023-08-24T14:31:14;18;17;
64631;PMS5003;58358;50.936;0.246;2023-08-24T14:33:40;28;26;
64631;PMS5003;58358;50.936;0.246;2023-08-24T14:36:05;18;18;
64631;PMS5003;58358;50.936;0.246;2023-08-24T14:38:31;19;19;
64631;PMS5003;58358;50.936;0.246;2023-08-24T14:40:56;19;18;
64631;PMS5003;58358;50.936;0.246;2023-08-24T14:43:22;15;15;
64631;PMS5003;58358;50.936;0.246;2023-08-24T14:45:47;16;15;
64631;PMS5003;58358;50.936;0.246;2023-08-24T14:48:13;16;16;
64631;PMS5003;58358;50.936;0.246;2023-08-24T14:50:38;14;13;
64631;PMS5003;58358;50.936;0.246;2023-08-24T14:53:04;14;14;
64631;PMS5003;58358;50.936;0.246;2023-08-24T14:55:29;16;15;
64631;PMS5003;58358;50.936;0.246;2023-08-24T14:57:55;15;15;
64631;PMS5003;58358;50.936;0.246;2023-08-24T15:00:20;16;16;
64631;PMS5003;58358;50.936;0.246;2023-08-24T15:02:45;17;17;
64631;PMS5003;58358;50.936;0.246;2023-08-24T15:05:11;15;15;
64631;PMS5003;58358;50.936;0.246;2023-08-24T15:07:37;13;11;
64631;PMS5003;58358;50.936;0.246;2023-08-24T15:10:03;15;13;
64631;PMS5003;58358;50.936;0.246;2023-08-24T15:12:28;13;13;
64631;PMS5003;58358;50.936;0.246;2023-08-24T15:14:57;13;12;
64631;PMS5003;58358;50.936;0.246;2023-08-24T15:17:19;15;14;
64631;PMS5003;58358;50.936;0.246;2023-08-24T15:19:44;8;7;
64631;PMS5003;58358;50.936;0.246;2023-08-24T15:22:10;11;10;
64631;PMS5003;58358;50.936;0.246;2023-08-24T15:24:36;9;6;
64631;PMS5003;58358;50.936;0.246;2023-08-24T15:27:02;7;7;
64631;PMS5003;58358;50.936;0.246;2023-08-24T15:29:27;10;8;
64631;PMS5003;58358;50.936;0.246;2023-08-24T15:31:53;8;7;
64631;PMS5003;58358;50.936;0.246;2023-08-24T15:34:18;7;7;
64631;PMS5003;58358;50.936;0.246;2023-08-24T15:36:44;6;6;
64631;PMS5003;58358;50.936;0.246;2023-08-24T15:39:09;6;6;
64631;PMS5003;58358;50.936;0.246;2023-08-24T15:41:35;6;6;
64631;PMS5003;58358;50.936;0.246;2023-08-24T15:44:00;4;4;
64631;PMS5003;58358;50.936;0.246;2023-08-24T15:46:26;5;5;
64631;PMS5003;58358;50.936;0.246;2023-08-24T15:48:51;5;3;
64631;PMS5003;58358;50.936;0.246;2023-08-24T15:51:17;4;4;
64631;PMS5003;58358;50.936;0.246;2023-08-24T15:53:42;7;6;
64631;PMS5003;58358;50.936;0.246;2023-08-24T15:56:08;6;4;
64631;PMS5003;58358;50.936;0.246;2023-08-24T15:58:33;13;13;
64631;PMS5003;58358;50.936;0.246;2023-08-24T16:00:59;8;8;
64631;PMS5003;58358;50.936;0.246;2023-08-24T16:03:24;6;6;
64631;PMS5003;58358;50.936;0.246;2023-08-24T16:05:50;6;6;
64631;PMS5003;58358;50.936;0.246;2023-08-24T16:08:15;6;5;
64631;PMS5003;58358;50.936;0.246;2023-08-24T16:10:41;7;7;
64631;PMS5003;58358;50.936;0.246;2023-08-24T16:13:06;7;7;
64631;PMS5003;58358;50.936;0.246;2023-08-24T16:15:32;7;7;
64631;PMS5003;58358;50.936;0.246;2023-08-24T16:17:57;7;7;
64631;PMS5003;58358;50.936;0.246;2023-08-24T16:20:23;10;8;
64631;PMS5003;58358;50.936;0.246;2023-08-24T16:22:48;7;7;
64631;PMS5003;58358;50.936;0.246;2023-08-24T16:25:14;9;8;
64631;PMS5003;58358;50.936;0.246;2023-08-24T16:27:39;10;10;